createdAt,value
2017-09-27T00:00:37.850Z,77.46
2017-09-27T00:01:48.197Z,77.55
2017-09-27T00:02:58.227Z,77.55
2017-09-27T00:04:08.624Z,77.46
2017-09-27T00:05:18.990Z,77.46
2017-09-27T00:06:28.721Z,77.84
2017-09-27T00:07:39.079Z,77.65
2017-09-27T00:08:49.461Z,77.55
2017-09-27T00:09:59.534Z,77.55
2017-09-27T00:11:09.582Z,77.75
2017-09-27T00:12:19.932Z,77.26
2017-09-27T00:13:29.967Z,77.55
2017-09-27T00:14:40.312Z,77.84
2017-09-27T00:15:50.655Z,77.46
2017-09-27T00:17:01.008Z,77.46
2017-09-27T00:18:11.375Z,77.08
2017-09-27T00:19:21.720Z,77.08
2017-09-27T00:20:32.085Z,77.17
2017-09-27T00:21:42.109Z,77.26
2017-09-27T00:22:52.476Z,77.08
2017-09-27T00:24:02.823Z,77.17
2017-09-27T00:25:12.537Z,77.26
2017-09-27T00:26:22.562Z,76.89
2017-09-27T00:27:32.902Z,76.98
2017-09-27T00:28:43.246Z,76.79
2017-09-27T00:29:53.269Z,76.89
2017-09-27T00:31:03.289Z,77.17
2017-09-27T00:32:13.628Z,76.92
2017-09-27T00:33:23.986Z,76.82
2017-09-27T00:34:34.342Z,77.02
2017-09-27T00:35:44.382Z,76.82
2017-09-27T00:36:54.417Z,77.31
2017-09-27T00:38:04.759Z,77.11
2017-09-27T00:39:14.473Z,77.11
2017-09-27T00:40:24.818Z,77.02
2017-09-27T00:41:35.166Z,77.02
2017-09-27T00:42:45.512Z,77.21
2017-09-27T00:43:55.858Z,77.11
2017-09-27T00:45:06.196Z,77.17
2017-09-27T00:46:16.227Z,77.4
2017-09-27T00:47:26.576Z,77.46
2017-09-27T00:48:36.286Z,77.75
2017-09-27T00:49:46.622Z,77.46
2017-09-27T00:50:57.476Z,77.46
2017-09-27T00:52:07.826Z,77.55
2017-09-27T00:53:18.163Z,77.65
2017-09-27T00:54:28.180Z,77.75
2017-09-27T00:55:38.516Z,77.55
2017-09-27T00:56:48.899Z,77.55
2017-09-27T00:57:59.242Z,77.55
2017-09-27T00:59:09.268Z,77.55
2017-09-27T01:00:19.611Z,77.65
2017-09-27T01:01:29.950Z,77.65
2017-09-27T01:02:40.298Z,77.65
2017-09-27T01:03:50.323Z,77.46
2017-09-27T01:05:00.666Z,77.75
2017-09-27T01:06:10.697Z,77.46
2017-09-27T01:07:21.698Z,77.36
2017-09-27T01:08:31.773Z,77.55
2017-09-27T01:09:42.106Z,77.55
2017-09-27T01:10:52.464Z,77.7
2017-09-27T01:12:02.806Z,77.51
2017-09-27T01:13:12.835Z,77.51
2017-09-27T01:14:23.225Z,77.51
2017-09-27T01:15:33.563Z,77.42
2017-09-27T01:16:43.913Z,77.42
2017-09-27T01:17:53.962Z,77.42
2017-09-27T01:19:03.981Z,77.33
2017-09-27T01:20:14.380Z,77.51
2017-09-27T01:21:24.725Z,77.51
2017-09-27T01:22:34.748Z,77.33
2017-09-27T01:23:45.100Z,77.51
2017-09-27T01:24:55.447Z,77.9
2017-09-27T01:26:05.798Z,77.42
2017-09-27T01:27:16.135Z,77.42
2017-09-27T01:28:26.470Z,77.51
2017-09-27T01:29:36.808Z,77.61
2017-09-27T01:30:46.833Z,77.51
2017-09-27T01:31:57.175Z,77.51
2017-09-27T01:33:07.528Z,77.51
2017-09-27T01:34:17.865Z,77.51
2017-09-27T01:35:28.208Z,77.42
2017-09-27T01:36:38.542Z,77.42
2017-09-27T01:37:48.959Z,77.42
2017-09-27T01:38:58.980Z,77.13
2017-09-27T01:40:09.319Z,77.13
2017-09-27T01:41:19.334Z,77.13
2017-09-27T01:42:29.361Z,77.13
2017-09-27T01:43:39.686Z,77.23
2017-09-27T01:44:49.698Z,77.23
2017-09-27T01:46:00.047Z,77.33
2017-09-27T01:47:10.389Z,77.23
2017-09-27T01:48:20.731Z,77.33
2017-09-27T01:49:30.776Z,77.51
2017-09-27T01:50:41.112Z,77.13
2017-09-27T01:51:51.461Z,77.13
2017-09-27T01:53:01.798Z,77.7
2017-09-27T01:54:11.834Z,77.7
2017-09-27T01:55:22.191Z,77.42
2017-09-27T01:56:32.528Z,77.13
2017-09-27T01:57:42.555Z,77.33
2017-09-27T01:58:52.882Z,77.13
2017-09-27T02:00:02.931Z,77.23
2017-09-27T02:01:13.324Z,77.13
2017-09-27T02:02:23.347Z,77.33
2017-09-27T02:03:33.368Z,77.42
2017-09-27T02:04:43.386Z,77.33
2017-09-27T02:05:53.417Z,77.33
2017-09-27T02:07:03.739Z,77.51
2017-09-27T02:08:14.118Z,77.42
2017-09-27T02:09:24.455Z,77.51
2017-09-27T02:10:34.790Z,77.51
2017-09-27T02:11:45.145Z,77.33
2017-09-27T02:12:55.540Z,77.33
2017-09-27T02:14:05.559Z,77.33
2017-09-27T02:15:15.905Z,77.51
2017-09-27T02:16:26.258Z,77.61
2017-09-27T02:17:36.606Z,77.7
2017-09-27T02:18:46.611Z,77.33
2017-09-27T02:19:56.640Z,77.7
2017-09-27T02:21:07.167Z,77.33
2017-09-27T02:22:17.488Z,77.51
2017-09-27T02:23:27.829Z,77.61
2017-09-27T02:24:37.844Z,77.61
2017-09-27T02:25:47.872Z,77.51
2017-09-27T02:26:58.211Z,77.42
2017-09-27T02:28:08.545Z,77.51
2017-09-27T02:29:18.564Z,77.51
2017-09-27T02:30:27.956Z,77.33
2017-09-27T02:31:38.296Z,77.51
2017-09-27T02:32:48.005Z,77.7
2017-09-27T02:33:58.356Z,77.7
2017-09-27T02:35:08.697Z,77.7
2017-09-27T02:36:18.769Z,77.38
2017-09-27T02:37:29.110Z,77.7
2017-09-27T02:38:39.476Z,77.76
2017-09-27T02:39:49.827Z,77.76
2017-09-27T02:41:00.170Z,77.33
2017-09-27T02:42:10.631Z,77.8
2017-09-27T02:43:20.350Z,77.61
2017-09-27T02:44:30.691Z,77.38
2017-09-27T02:45:40.715Z,77.67
2017-09-27T02:46:51.080Z,77.67
2017-09-27T02:48:01.106Z,77.57
2017-09-27T02:49:11.438Z,77.48
2017-09-27T02:50:21.785Z,77.38
2017-09-27T02:51:31.817Z,77.38
2017-09-27T02:52:42.154Z,77.48
2017-09-27T02:53:52.510Z,77.48
2017-09-27T02:55:02.218Z,77.38
2017-09-27T02:56:12.245Z,77.67
2017-09-27T02:57:22.569Z,77.28
2017-09-27T02:58:32.580Z,77.48
2017-09-27T02:59:42.975Z,77.28
2017-09-27T03:00:53.325Z,77.38
2017-09-27T03:02:03.648Z,77.48
2017-09-27T03:33:24.407Z,74.57
2017-09-27T03:34:34.731Z,75.15
2017-09-27T03:35:44.742Z,75.68
2017-09-27T03:36:55.063Z,76.64
2017-09-27T03:38:05.416Z,77.06
2017-09-27T03:39:15.433Z,77.72
2017-09-27T03:40:25.466Z,77.91
2017-09-27T03:41:35.804Z,78.58
2017-09-27T03:42:46.138Z,78.49
2017-09-27T03:43:56.184Z,78.1
2017-09-27T03:45:06.533Z,78.33
2017-09-27T03:46:16.548Z,78.23
2017-09-27T03:47:26.881Z,78.52
2017-09-27T03:48:37.218Z,78.23
2017-09-27T03:49:47.272Z,78.56
2017-09-27T03:50:57.661Z,78.37
2017-09-27T03:52:07.998Z,78.56
2017-09-27T03:53:17.712Z,77.51
2017-09-27T03:54:28.062Z,77.89
2017-09-27T03:55:39.511Z,77.84
2017-09-27T03:56:49.909Z,78.41
2017-09-27T03:57:59.928Z,78.13
2017-09-27T03:59:09.960Z,78.03
2017-09-27T04:00:20.286Z,78.13
2017-09-27T04:01:30.618Z,77.94
2017-09-27T04:02:40.647Z,77.87
2017-09-27T04:03:50.975Z,77.59
2017-09-27T04:05:01.325Z,77.87
2017-09-27T04:06:11.678Z,77.59
2017-09-27T04:07:21.702Z,77.5
2017-09-27T04:08:32.108Z,77.21
2017-09-27T04:09:42.465Z,77.25
2017-09-27T04:10:52.797Z,77.25
2017-09-27T04:12:02.830Z,77.25
2017-09-27T04:13:12.874Z,77.25
2017-09-27T04:14:22.896Z,77.34
2017-09-27T04:15:32.922Z,77.15
2017-09-27T04:16:43.263Z,77.25
2017-09-27T04:17:53.619Z,77.25
2017-09-27T04:19:03.963Z,77.15
2017-09-27T04:20:14.286Z,77.25
2017-09-27T04:21:24.640Z,77.15
2017-09-27T04:22:34.973Z,77.34
2017-09-27T04:23:45.005Z,77.34
2017-09-27T04:24:55.043Z,77.44
2017-09-27T04:26:05.422Z,77.44
2017-09-27T04:27:15.777Z,77.53
2017-09-27T04:28:26.117Z,77.44
2017-09-27T04:29:36.182Z,77.63
2017-09-27T04:30:46.510Z,77.53
2017-09-27T04:31:56.857Z,77.44
2017-09-27T04:33:07.195Z,77.63
2017-09-27T04:34:17.230Z,77.63
2017-09-27T04:35:26.944Z,77.44
2017-09-27T04:36:37.295Z,77.44
2017-09-27T04:37:47.365Z,77.44
2017-09-27T04:38:57.729Z,77.25
2017-09-27T04:40:08.069Z,77.53
2017-09-27T04:41:18.095Z,77.44
2017-09-27T04:42:28.423Z,77.53
2017-09-27T04:43:38.769Z,77.34
2017-09-27T04:44:49.102Z,77.34
2017-09-27T04:45:59.114Z,77.53
2017-09-27T04:47:09.464Z,77.44
2017-09-27T04:48:19.803Z,77.82
2017-09-27T04:49:30.198Z,77.34
2017-09-27T04:50:39.906Z,77.34
2017-09-27T04:51:50.253Z,77.25
2017-09-27T04:53:00.272Z,77.53
2017-09-27T04:54:10.600Z,77.06
2017-09-27T04:55:20.987Z,77.53
2017-09-27T04:56:31.343Z,77.44
2017-09-27T04:57:41.075Z,77.34
2017-09-27T04:58:51.098Z,77.34
2017-09-27T05:00:01.430Z,77.72
2017-09-27T05:01:11.821Z,77.44
2017-09-27T05:02:21.839Z,77.53
2017-09-27T05:03:31.866Z,77.44
2017-09-27T05:04:42.197Z,77.53
2017-09-27T05:05:52.544Z,77.44
2017-09-27T05:07:02.888Z,77.34
2017-09-27T05:08:13.236Z,77.15
2017-09-27T05:09:23.571Z,77.15
2017-09-27T05:10:33.910Z,76.96
2017-09-27T05:11:44.265Z,76.96
2017-09-27T05:12:54.283Z,76.96
2017-09-27T05:14:04.295Z,76.86
2017-09-27T05:15:14.660Z,77.06
2017-09-27T05:16:24.683Z,76.77
2017-09-27T05:17:35.050Z,76.96
2017-09-27T05:18:45.087Z,76.96
2017-09-27T05:19:55.115Z,76.96
2017-09-27T05:21:05.467Z,76.86
2017-09-27T05:22:15.499Z,76.86
2017-09-27T05:23:25.874Z,76.71
2017-09-27T05:24:35.952Z,77.28
2017-09-27T05:25:46.304Z,77.19
2017-09-27T05:26:56.680Z,77.09
2017-09-27T05:28:06.713Z,76.81
2017-09-27T05:29:17.070Z,76.81
2017-09-27T05:30:27.098Z,76.62
2017-09-27T05:31:37.119Z,76.9
2017-09-27T05:32:47.454Z,76.81
2017-09-27T05:33:57.807Z,76.52
2017-09-27T05:35:08.146Z,77.09
2017-09-27T05:36:18.814Z,77
2017-09-27T05:37:28.527Z,76.42
2017-09-27T05:38:38.556Z,76.42
2017-09-27T05:39:48.894Z,76.42
2017-09-27T05:40:59.235Z,76.52
2017-09-27T05:42:09.629Z,76.33
2017-09-27T05:43:19.664Z,77.13
2017-09-27T05:44:30.025Z,76.84
2017-09-27T05:45:39.728Z,76.81
2017-09-27T05:46:50.060Z,76.84
2017-09-27T05:48:00.452Z,76.84
2017-09-27T05:49:10.789Z,76.42
2017-09-27T05:50:21.121Z,76.71
2017-09-27T05:51:31.486Z,76.46
2017-09-27T05:52:41.516Z,76.94
2017-09-27T05:53:51.856Z,76.75
2017-09-27T05:55:02.198Z,76.65
2017-09-27T05:56:12.554Z,76.75
2017-09-27T05:57:22.931Z,76.65
2017-09-27T05:58:33.281Z,76.65
2017-09-27T05:59:43.680Z,76.65
2017-09-27T06:00:54.035Z,76.56
2017-09-27T06:02:04.073Z,76.75
2017-09-27T06:03:14.423Z,76.18
2017-09-27T06:04:24.769Z,76.27
2017-09-27T06:05:35.262Z,75.93
2017-09-27T06:06:45.595Z,76.21
2017-09-27T06:07:55.634Z,76.02
2017-09-27T06:09:05.967Z,76.12
2017-09-27T06:10:16.323Z,76.12
2017-09-27T06:11:26.723Z,75.93
2017-09-27T06:12:36.443Z,76.02
2017-09-27T06:13:46.456Z,76.31
2017-09-27T06:14:56.854Z,76.54
2017-09-27T06:16:06.873Z,76.15
2017-09-27T06:17:17.207Z,76.15
2017-09-27T06:18:27.567Z,76.06
2017-09-27T06:19:37.604Z,76.15
2017-09-27T06:20:47.631Z,75.96
2017-09-27T06:21:57.986Z,76.06
2017-09-27T06:23:08.049Z,76.73
2017-09-27T06:24:18.079Z,76.82
2017-09-27T06:25:28.423Z,76.35
2017-09-27T06:26:38.761Z,76.64
2017-09-27T06:27:49.112Z,76.64
2017-09-27T06:28:59.456Z,76.73
2017-09-27T06:30:09.550Z,76.73
2017-09-27T06:31:19.886Z,76.54
2017-09-27T06:32:30.238Z,76.44
2017-09-27T06:33:40.272Z,76.73
2017-09-27T06:34:50.616Z,76.44
2017-09-27T06:36:00.946Z,75.96
2017-09-27T06:37:10.974Z,76.19
2017-09-27T06:38:21.400Z,76.39
2017-09-27T06:39:31.459Z,76.39
2017-09-27T06:40:41.997Z,76.39
2017-09-27T06:41:52.317Z,76.48
2017-09-27T06:43:02.667Z,76.39
2017-09-27T06:44:13.011Z,76.32
2017-09-27T06:45:22.730Z,76.48
2017-09-27T06:46:33.082Z,75.95
2017-09-27T06:47:43.434Z,76.04
2017-09-27T06:48:53.783Z,76.23
2017-09-27T06:50:03.820Z,75.85
2017-09-27T06:51:14.178Z,75.85
2017-09-27T06:52:24.569Z,75.5
2017-09-27T06:53:34.604Z,75.79
2017-09-27T06:54:44.956Z,75.5
2017-09-27T06:55:54.975Z,75.89
2017-09-27T06:57:05.318Z,75.6
2017-09-27T06:58:15.657Z,76.02
2017-09-27T06:59:26.019Z,76.07
2017-09-27T07:00:36.041Z,76.4
2017-09-27T07:01:46.379Z,76.27
2017-09-27T07:02:56.719Z,76.07
2017-09-27T07:04:07.133Z,75.82
2017-09-27T07:05:17.480Z,75.73
2017-09-27T07:06:27.807Z,75.92
2017-09-27T07:07:37.827Z,75.73
2017-09-27T07:08:48.180Z,75.87
2017-09-27T07:09:58.595Z,76.15
2017-09-27T07:11:08.617Z,76.06
2017-09-27T07:12:18.961Z,75.67
2017-09-27T07:13:29.320Z,75.96
2017-09-27T07:14:39.675Z,75.62
2017-09-27T07:15:49.771Z,75.62
2017-09-27T07:16:59.797Z,75.62
2017-09-27T07:18:10.147Z,75.71
2017-09-27T07:19:20.500Z,75.9
2017-09-27T07:20:30.840Z,75.75
2017-09-27T07:21:40.593Z,75.84
2017-09-27T07:22:50.610Z,75.75
2017-09-27T07:24:00.326Z,75.84
2017-09-27T07:25:10.351Z,75.75
2017-09-27T07:26:20.384Z,75.75
2017-09-27T07:27:30.468Z,75.69
2017-09-27T07:28:40.513Z,75.21
2017-09-27T07:29:50.557Z,75.59
2017-09-27T07:31:00.906Z,75.4
2017-09-27T07:32:11.269Z,75.21
2017-09-27T07:33:21.607Z,75.44
2017-09-27T07:34:31.961Z,75.34
2017-09-27T07:35:42.313Z,75.44
2017-09-27T07:36:52.052Z,75.44
2017-09-27T07:38:02.408Z,75.24
2017-09-27T07:39:12.139Z,75.57
2017-09-27T07:40:22.182Z,75.28
2017-09-27T07:41:32.530Z,74.99
2017-09-27T07:42:42.566Z,75.57
2017-09-27T07:43:53.534Z,75.67
2017-09-27T07:45:03.627Z,75.67
2017-09-27T07:46:14.009Z,75.67
2017-09-27T07:47:23.403Z,75.67
2017-09-27T07:48:33.777Z,75.51
2017-09-27T07:49:43.806Z,75.51
2017-09-27T07:50:54.224Z,75.51
2017-09-27T07:52:04.554Z,75.71
2017-09-27T07:53:14.931Z,75.51
2017-09-27T07:54:25.291Z,75.51
2017-09-27T07:55:35.642Z,75.61
2017-09-27T07:56:46.062Z,75.51
2017-09-27T07:57:56.143Z,75.61
2017-09-27T07:59:06.197Z,75.32
2017-09-27T08:00:16.219Z,75.51
2017-09-27T08:01:26.627Z,75.61
2017-09-27T08:02:36.705Z,75.65
2017-09-27T08:03:47.052Z,75.55
2017-09-27T08:04:57.083Z,75.65
2017-09-27T08:06:07.415Z,75.74
2017-09-27T08:07:17.444Z,75.36
2017-09-27T08:08:27.524Z,75.26
2017-09-27T08:09:37.551Z,75.36
2017-09-27T08:10:47.898Z,75.55
2017-09-27T08:11:58.252Z,75.55
2017-09-27T08:13:08.295Z,75.65
2017-09-27T08:14:18.642Z,75.4
2017-09-27T08:15:28.994Z,75.4
2017-09-27T08:16:39.345Z,75.4
2017-09-27T08:17:49.701Z,75.97
2017-09-27T08:19:00.062Z,74.95
2017-09-27T08:20:10.146Z,74.85
2017-09-27T08:21:20.539Z,75.05
2017-09-27T08:22:30.574Z,74.85
2017-09-27T08:23:40.294Z,75.14
2017-09-27T08:24:50.630Z,75.24
2017-09-27T08:26:01.032Z,75.82
2017-09-27T08:27:11.100Z,75.53
2017-09-27T08:28:21.445Z,75.53
2017-09-27T08:29:31.807Z,74.99
2017-09-27T08:30:42.164Z,74.99
2017-09-27T08:31:52.525Z,75.18
2017-09-27T08:33:02.887Z,74.99
2017-09-27T08:34:13.294Z,75.18
2017-09-27T08:35:23.644Z,74.99
2017-09-27T08:36:34.003Z,75.67
2017-09-27T08:37:44.409Z,75.47
2017-09-27T08:38:54.765Z,75.47
2017-09-27T08:40:05.111Z,75.57
2017-09-27T08:41:15.170Z,75.51
2017-09-27T08:42:25.209Z,75.79
2017-09-27T08:43:35.296Z,75.22
2017-09-27T08:44:45.644Z,76.09
2017-09-27T08:45:55.686Z,75.7
2017-09-27T08:47:06.029Z,75.51
2017-09-27T08:48:16.385Z,75.79
2017-09-27T08:49:26.772Z,75.22
2017-09-27T08:50:39.008Z,75.89
2017-09-27T08:51:53.791Z,75.89
2017-09-27T08:53:08.073Z,75.79
2017-09-27T08:54:22.018Z,75.7
2017-09-27T08:55:36.445Z,75.6
2017-09-27T08:56:50.521Z,75.51
2017-09-27T08:58:04.215Z,75.7
2017-09-27T08:59:17.979Z,75.89
2017-09-27T09:00:32.308Z,75.84
2017-09-27T09:01:46.930Z,75.79
2017-09-27T09:03:01.623Z,76.09
2017-09-27T09:04:14.396Z,76.09
2017-09-27T09:05:24.446Z,76.28
2017-09-27T09:06:34.876Z,76.09
2017-09-27T09:07:45.256Z,76.47
2017-09-27T09:08:55.630Z,75.99
2017-09-27T09:10:06.256Z,76.28
2017-09-27T09:11:16.684Z,75.89
2017-09-27T09:12:27.047Z,75.51
2017-09-27T09:13:37.100Z,75.16
2017-09-27T09:14:47.178Z,74.87
2017-09-27T09:15:57.747Z,75.16
2017-09-27T09:17:08.205Z,74.81
2017-09-27T09:18:18.619Z,75.1
2017-09-27T09:19:28.715Z,75.2
2017-09-27T09:20:39.102Z,75.1
2017-09-27T09:21:49.130Z,74.9
2017-09-27T09:22:59.244Z,75.39
2017-09-27T09:24:09.323Z,75.13
2017-09-27T09:25:19.784Z,75.04
2017-09-27T09:26:30.183Z,75.97
2017-09-27T09:27:40.589Z,75.62
2017-09-27T09:28:51.027Z,75.62
2017-09-27T09:30:01.404Z,75.91
2017-09-27T09:31:11.780Z,75.71
2017-09-27T09:32:22.440Z,75.62
2017-09-27T09:33:32.781Z,75.81
2017-09-27T09:34:43.139Z,75.27
2017-09-27T09:35:53.201Z,75.37
2017-09-27T09:37:03.233Z,75.07
2017-09-27T09:38:13.579Z,75.75
2017-09-27T09:39:23.935Z,75.75
2017-09-27T09:40:34.373Z,75.65
2017-09-27T09:41:44.721Z,75.65
2017-09-27T09:42:54.155Z,75.43
2017-09-27T09:44:04.506Z,75.81
2017-09-27T09:45:14.855Z,75.65
2017-09-27T09:46:25.251Z,75.95
2017-09-27T09:47:35.587Z,75.95
2017-09-27T09:48:45.620Z,75.75
2017-09-27T09:49:55.996Z,75.17
2017-09-27T09:51:06.390Z,75.17
2017-09-27T09:52:16.788Z,75.27
2017-09-27T09:53:27.139Z,74.73
2017-09-27T09:54:37.495Z,75.02
2017-09-27T09:55:47.842Z,74.86
2017-09-27T09:56:58.194Z,75.05
2017-09-27T09:58:08.606Z,74.96
2017-09-27T09:59:18.975Z,74.57
2017-09-27T10:00:29.329Z,74.66
2017-09-27T10:01:39.691Z,74.57
2017-09-27T10:02:50.066Z,74.22
2017-09-27T10:04:00.480Z,74.12
2017-09-27T10:05:10.826Z,74.02
2017-09-27T10:06:21.189Z,74.12
2017-09-27T10:07:31.550Z,74.41
2017-09-27T10:08:41.596Z,74.22
2017-09-27T10:09:51.952Z,74.41
2017-09-27T10:11:02.321Z,74.6
2017-09-27T10:12:12.356Z,74.16
2017-09-27T10:13:22.413Z,73.67
2017-09-27T10:14:32.757Z,74.45
2017-09-27T10:15:42.855Z,74.45
2017-09-27T10:16:52.892Z,74.45
2017-09-27T10:18:02.965Z,74.45
2017-09-27T10:19:13.338Z,74.45
2017-09-27T10:20:23.702Z,74.26
2017-09-27T10:21:33.785Z,74.64
2017-09-27T10:22:43.819Z,74.35
2017-09-27T10:23:54.223Z,75.03
2017-09-27T10:25:04.584Z,74.84
2017-09-27T10:26:15.015Z,74.93
2017-09-27T10:27:25.459Z,74.16
2017-09-27T10:28:35.811Z,74.93
2017-09-27T10:29:46.166Z,74.93
2017-09-27T10:30:56.520Z,74.93
2017-09-27T10:32:06.904Z,74.84
2017-09-27T10:33:17.305Z,74.74
2017-09-27T10:34:27.375Z,74.93
2017-09-27T10:35:37.736Z,74.74
2017-09-27T10:36:48.079Z,74.7
2017-09-27T10:37:58.451Z,75.28
2017-09-27T10:39:08.552Z,74.99
2017-09-27T10:40:18.610Z,74.99
2017-09-27T10:41:28.969Z,75.28
2017-09-27T10:42:39.008Z,75.19
2017-09-27T10:43:48.743Z,74.99
2017-09-27T10:44:58.776Z,75.15
2017-09-27T10:46:09.141Z,75.24
2017-09-27T10:47:19.169Z,75.34
2017-09-27T10:48:29.183Z,75.05
2017-09-27T10:49:39.544Z,75.24
2017-09-27T10:50:49.937Z,75.34
2017-09-27T10:52:00.924Z,75.34
2017-09-27T10:53:10.969Z,75.19
2017-09-27T10:54:21.318Z,75.09
2017-09-27T10:55:31.666Z,74.51
2017-09-27T10:56:41.708Z,75.09
2017-09-27T10:57:52.046Z,74.7
2017-09-27T10:59:02.405Z,74.9
2017-09-27T11:00:12.469Z,75.09
2017-09-27T11:01:22.853Z,74.7
2017-09-27T11:02:33.403Z,74.9
2017-09-27T11:03:43.467Z,74.6
2017-09-27T11:04:53.846Z,74.7
2017-09-27T11:06:04.210Z,74.7
2017-09-27T11:07:14.595Z,74.51
2017-09-27T11:08:25.039Z,75.28
2017-09-27T11:09:35.102Z,75.38
2017-09-27T11:10:45.466Z,74.51
2017-09-27T11:11:55.572Z,74.7
2017-09-27T11:13:05.950Z,74.93
2017-09-27T11:14:16.323Z,75.19
2017-09-27T11:15:26.690Z,74.93
2017-09-27T11:16:37.053Z,75.23
2017-09-27T11:17:47.416Z,75.03
2017-09-27T11:18:57.124Z,75.42
2017-09-27T11:20:07.546Z,75.48
2017-09-27T11:21:17.910Z,75.87
2017-09-27T11:22:28.263Z,75.96
2017-09-27T11:23:38.296Z,76.15
2017-09-27T11:24:48.655Z,75.34
2017-09-27T11:25:58.736Z,74.9
2017-09-27T11:27:08.779Z,74.45
2017-09-27T11:28:18.504Z,73.71
2017-09-27T11:29:28.866Z,73.71
2017-09-27T11:30:38.912Z,74.1
2017-09-27T11:31:48.681Z,74.29
2017-09-27T11:32:58.722Z,74.93
2017-09-27T11:34:09.085Z,74.54
2017-09-27T11:35:19.119Z,74.29
2017-09-27T11:36:29.480Z,73.8
2017-09-27T11:37:39.933Z,74.04
2017-09-27T11:38:50.303Z,74.13
2017-09-27T11:40:00.694Z,74.23
2017-09-27T11:41:11.071Z,74.23
2017-09-27T11:42:21.442Z,74.13
2017-09-27T11:43:31.840Z,74.33
2017-09-27T11:44:41.874Z,73.74
2017-09-27T11:45:51.896Z,74.52
2017-09-27T11:47:02.500Z,74.91
2017-09-27T11:48:12.545Z,75.16
2017-09-27T11:49:22.581Z,75.36
2017-09-27T11:50:32.618Z,75.03
2017-09-27T11:51:42.971Z,75.51
2017-09-27T11:52:53.326Z,76.19
2017-09-27T11:54:03.363Z,76
2017-09-27T11:55:13.775Z,76.15
2017-09-27T11:56:24.143Z,75.77
2017-09-27T11:57:34.494Z,76.15
2017-09-27T11:58:44.832Z,75.28
2017-09-27T11:59:54.864Z,75.87
2017-09-27T12:01:05.279Z,75.87
2017-09-27T12:02:15.629Z,75.48
2017-09-27T12:03:25.976Z,75.09
2017-09-27T12:04:36.015Z,75.23
2017-09-27T12:05:45.421Z,74.84
2017-09-27T12:06:55.461Z,74.74
2017-09-27T12:08:05.827Z,74.93
2017-09-27T12:09:16.205Z,75.09
2017-09-27T12:10:26.565Z,75.28
2017-09-27T12:11:36.906Z,74.99
2017-09-27T12:12:47.272Z,74.74
2017-09-27T12:13:57.322Z,74.35
2017-09-27T12:15:07.681Z,74.26
2017-09-27T12:16:17.388Z,73.96
2017-09-27T12:17:26.779Z,74.39
2017-09-27T12:18:36.856Z,74.49
2017-09-27T12:19:47.209Z,74.49
2017-09-27T12:20:57.564Z,74.58
2017-09-27T12:22:07.946Z,74.49
2017-09-27T12:23:18.304Z,74.58
2017-09-27T12:24:28.357Z,74.39
2017-09-27T12:25:38.712Z,74.84
2017-09-27T12:26:48.748Z,75.42
2017-09-27T12:27:59.111Z,75.19
2017-09-27T12:29:08.827Z,75.28
2017-09-27T12:30:18.926Z,75.28
2017-09-27T12:31:29.278Z,76.06
2017-09-27T12:32:38.684Z,75.96
2017-09-27T12:33:48.414Z,76.12
2017-09-27T12:34:58.775Z,75.92
2017-09-27T12:36:08.494Z,75.83
2017-09-27T12:37:18.539Z,76.12
2017-09-27T12:38:28.580Z,75.92
2017-09-27T12:39:38.938Z,75.44
2017-09-27T12:40:49.290Z,76.12
2017-09-27T12:41:59.368Z,75.24
2017-09-27T12:43:09.408Z,75.34
2017-09-27T12:44:19.754Z,75.24
2017-09-27T12:45:30.102Z,75.15
2017-09-27T12:46:40.456Z,75.34
2017-09-27T12:47:50.551Z,75.28
2017-09-27T12:49:00.586Z,75.09
2017-09-27T12:50:10.644Z,75.38
2017-09-27T12:51:21.000Z,75.19
2017-09-27T12:52:31.369Z,75.38
2017-09-27T12:53:41.387Z,75.19
2017-09-27T12:54:51.748Z,75.38
2017-09-27T12:56:01.800Z,75.19
2017-09-27T12:57:12.151Z,75.38
2017-09-27T12:58:22.528Z,75.19
2017-09-27T12:59:32.928Z,75.19
2017-09-27T13:00:45.489Z,75.28
2017-09-27T13:01:55.872Z,75.48
2017-09-27T13:03:05.919Z,75.19
2017-09-27T13:04:15.961Z,75.28
2017-09-27T13:05:26.007Z,75.19
2017-09-27T13:06:36.399Z,75.19
2017-09-27T13:07:46.744Z,75.57
2017-09-27T13:08:56.775Z,75.19
2017-09-27T13:10:07.141Z,75.19
2017-09-27T13:11:17.218Z,75.38
2017-09-27T13:12:27.562Z,75.38
2017-09-27T13:13:37.932Z,75.42
2017-09-27T13:14:48.293Z,75.38
2017-09-27T13:15:58.363Z,75.23
2017-09-27T13:17:08.461Z,75.32
2017-09-27T13:18:18.817Z,75.42
2017-09-27T13:19:29.175Z,75.51
2017-09-27T13:20:39.211Z,75.42
2017-09-27T13:21:48.941Z,75.32
2017-09-27T13:22:59.309Z,75.38
2017-09-27T13:24:09.662Z,75.09
2017-09-27T13:25:20.013Z,75.48
2017-09-27T13:26:30.065Z,75.28
2017-09-27T13:27:40.125Z,75.38
2017-09-27T13:28:50.511Z,75.28
2017-09-27T13:30:00.929Z,75.19
2017-09-27T13:31:11.291Z,76.35
2017-09-27T13:32:21.328Z,75.87
2017-09-27T13:33:31.684Z,76.02
2017-09-27T13:34:42.037Z,76.06
2017-09-27T13:35:52.378Z,76.02
2017-09-27T13:37:02.721Z,75.73
2017-09-27T13:38:13.086Z,76.12
2017-09-27T13:39:23.433Z,75.92
2017-09-27T13:40:33.788Z,76.41
2017-09-27T13:41:44.189Z,76.18
2017-09-27T13:42:53.912Z,76.18
2017-09-27T13:44:04.305Z,76.18
2017-09-27T13:45:14.878Z,76.37
2017-09-27T13:46:25.231Z,75.89
2017-09-27T13:47:35.275Z,75.89
2017-09-27T13:48:45.329Z,76.08
2017-09-27T13:49:55.688Z,76.12
2017-09-27T13:51:06.039Z,76.12
2017-09-27T13:52:16.058Z,75.98
2017-09-27T13:53:25.845Z,75.89
2017-09-27T13:54:36.209Z,76.37
2017-09-27T13:55:46.567Z,76.28
2017-09-27T13:56:56.619Z,76.18
2017-09-27T13:58:07.021Z,76.46
2017-09-27T13:59:17.438Z,76.56
2017-09-27T14:00:27.794Z,76.37
2017-09-27T14:01:38.166Z,76.56
2017-09-27T14:02:48.194Z,76.24
2017-09-27T14:03:58.243Z,76.53
2017-09-27T14:05:08.662Z,77.11
2017-09-27T14:06:18.704Z,76.62
2017-09-27T14:07:29.092Z,76.82
2017-09-27T14:08:39.461Z,77.11
2017-09-27T14:09:49.838Z,77.2
2017-09-27T14:11:00.265Z,76.97
2017-09-27T14:12:10.630Z,77.17
2017-09-27T14:13:20.679Z,77.07
2017-09-27T14:14:31.032Z,76.87
2017-09-27T14:15:41.394Z,76.87
2017-09-27T14:16:51.445Z,76.87
2017-09-27T14:18:01.787Z,76.64
2017-09-27T14:19:12.142Z,76.74
2017-09-27T14:20:22.193Z,76.84
2017-09-27T14:21:32.557Z,76.64
2017-09-27T14:22:42.989Z,76.55
2017-09-27T14:23:53.049Z,76.64
2017-09-27T14:25:03.429Z,76.84
2017-09-27T14:26:13.478Z,77.13
2017-09-27T14:27:23.851Z,77.03
2017-09-27T14:28:34.269Z,77.13
2017-09-27T14:29:44.348Z,77.03
2017-09-27T14:30:54.372Z,77.03
2017-09-27T14:32:04.722Z,77.13
2017-09-27T14:33:14.779Z,76.49
2017-09-27T14:34:25.131Z,76.68
2017-09-27T14:35:35.489Z,76.87
2017-09-27T14:36:45.525Z,76.68
2017-09-27T14:37:55.871Z,76.68
2017-09-27T14:39:06.245Z,76.68
2017-09-27T14:40:16.343Z,76.68
2017-09-27T14:41:26.680Z,76.97
2017-09-27T14:42:36.072Z,77.17
2017-09-27T14:43:46.440Z,76.87
2017-09-27T14:44:56.137Z,77.03
2017-09-27T14:46:06.504Z,76.84
2017-09-27T14:47:16.857Z,77.13
2017-09-27T14:48:27.208Z,77.13
2017-09-27T14:49:36.609Z,77.03
2017-09-27T14:50:46.643Z,76.84
2017-09-27T14:51:57.639Z,76.64
2017-09-27T14:53:08.000Z,76.64
2017-09-27T14:54:18.026Z,76.64
2017-09-27T14:55:28.460Z,76.84
2017-09-27T14:56:38.815Z,76.64
2017-09-27T14:57:49.210Z,76.84
2017-09-27T14:58:59.559Z,76.61
2017-09-27T15:00:09.906Z,77.03
2017-09-27T15:01:20.278Z,77.42
2017-09-27T15:02:30.644Z,77
2017-09-27T15:03:41.036Z,76.8
2017-09-27T15:04:51.085Z,77.48
2017-09-27T15:06:01.133Z,77.38
2017-09-27T15:07:11.501Z,77.57
2017-09-27T15:08:21.545Z,77.28
2017-09-27T15:09:31.631Z,77.86
2017-09-27T15:10:41.997Z,77.57
2017-09-27T15:11:52.349Z,77.57
2017-09-27T15:13:02.393Z,77.96
2017-09-27T15:14:12.770Z,77.67
2017-09-27T15:15:22.879Z,77.63
2017-09-27T15:16:32.904Z,77.67
2017-09-27T15:17:43.288Z,77.86
2017-09-27T15:18:53.642Z,78.02
2017-09-27T15:20:03.700Z,78.31
2017-09-27T15:21:13.868Z,78.21
2017-09-27T15:22:24.241Z,78.02
2017-09-27T15:23:34.294Z,78.02
2017-09-27T15:24:44.719Z,77.73
2017-09-27T15:25:54.773Z,77.92
2017-09-27T15:27:05.190Z,77.83
2017-09-27T15:28:15.537Z,77.92
2017-09-27T15:29:25.914Z,77.92
2017-09-27T15:30:36.537Z,77.83
2017-09-27T15:31:46.895Z,77.73
2017-09-27T15:32:57.307Z,77.53
2017-09-27T15:34:07.690Z,77.92
2017-09-27T15:35:18.047Z,77.73
2017-09-27T15:36:28.407Z,77.73
2017-09-27T15:37:38.766Z,77.92